FABL/BFN METAR and TAF weather

Enter ICAO airport designator
Station Type Date Time Source
FABL METAR 2020/01/23 21:00 UTC NOAA

FABL 232100Z AUTO 06009KT 9999 ///////// 18/13 Q1018


Station Type Date Time Source
FABL Decoded METAR 2020/01/23 21:00 UTC NOAA

Bloemfontein, Bloemfontein Airport, South Africa (FABL) 29-06S 026-18E 1400M
Jan 23, 2020 - 04:00 PM EST / 2020.01.23 2100 UTC
Wind: from the ENE (060 degrees) at 10 MPH (9 KT):0
Visibility: greater than 7 mile(s):0
Temperature: 64 F (18 C)
Dew Point: 55 F (13 C)
Relative Humidity: 72%
Pressure (altimeter): 30.06 in. Hg (1018 hPa)
ob: FABL 232100Z AUTO 06009KT 9999 ///////// 18/13 Q1018
cycle: 21

Station Type Date Time Source
FABL TAF 2020/01/23 18:09 UTC NOAA

TAF TAF FABL 231600Z 2318/2418 04012KT CAVOK TX26/2413Z TN15/2404Z
BECMG 2410/2412 27015KT SCT040TCU
TEMPO 2412/2418 27025G35KT 4000 TSRA BKN012 SCT035CB

Example: see airport list